Time;durP1;ratioP1;P1;durP2;ratioP2;P2;SDS_P1;SDS_P2;PMS_P1;PMS_P2;Temp;Humidity;BMP_temperature;BMP_pressure;BME280_temperature;BME280_humidity;BME280_pressure;Samples;Min_cycle;Max_cycle;Signal;HPM_P1;HPM_P2
2021/06/25 00:00:37;;;;;;;16.85;10.93;;;;;;;29.22;100.00;100959.41;4846006;29;20040;-76
2021/06/25 00:03:23;;;;;;;21.05;10.70;;;;;;;28.99;100.00;100957.00;4846372;29;20425;-76
2021/06/25 00:06:08;;;;;;;18.38;10.68;;;;;;;28.98;100.00;100958.88;4846039;29;20462;-76
2021/06/25 00:08:54;;;;;;;19.40;11.40;;;;;;;29.09;100.00;100944.44;4846452;29;20594;-75
2021/06/25 00:11:41;;;;;;;20.83;11.25;;;;;;;29.09;100.00;100956.06;4845873;29;20065;-76
2021/06/25 00:14:27;;;;;;;19.70;11.13;;;;;;;28.98;100.00;100961.56;4846633;29;20113;-76
2021/06/25 00:17:12;;;;;;;18.33;10.82;;;;;;;28.74;100.00;100955.69;4846242;29;20033;-76
2021/06/25 00:19:58;;;;;;;14.48;10.35;;;;;;;28.86;100.00;100948.31;4845877;29;20040;-76
2021/06/25 00:22:44;;;;;;;13.10;10.68;;;;;;;28.91;100.00;100949.63;4833759;29;20030;-75
2021/06/25 00:25:30;;;;;;;23.10;11.35;;;;;;;28.97;100.00;100951.75;4833319;29;20066;-75
2021/06/25 00:28:16;;;;;;;17.70;11.23;;;;;;;29.01;100.00;100949.69;4846451;29;20029;-75
2021/06/25 00:31:01;;;;;;;16.00;10.88;;;;;;;28.77;100.00;100943.75;4846448;29;20112;-76
2021/06/25 00:33:47;;;;;;;18.77;11.07;;;;;;;28.58;100.00;100939.16;4845924;29;20379;-76
2021/06/25 00:36:33;;;;;;;25.90;11.73;;;;;;;28.74;100.00;100939.50;4845178;29;20034;-76
2021/06/25 00:39:19;;;;;;;20.50;11.32;;;;;;;28.53;100.00;100932.44;4846010;29;20030;-76
2021/06/25 00:42:08;;;;;;;16.23;11.60;;;;;;;28.61;100.00;100938.84;4845445;29;20061;-76
2021/06/25 00:44:54;;;;;;;17.77;12.25;;;;;;;28.35;100.00;100944.81;4845372;29;20041;-76
2021/06/25 00:47:43;;;;;;;18.38;11.30;;;;;;;28.47;100.00;100935.66;4845467;29;20041;-75
2021/06/25 00:50:33;;;;;;;18.67;11.73;;;;;;;28.34;100.00;100927.81;4845503;29;20136;-76
2021/06/25 00:53:19;;;;;;;14.88;11.50;;;;;;;28.44;100.00;100931.41;4832989;29;20400;-77
2021/06/25 00:56:05;;;;;;;21.83;12.30;;;;;;;28.21;100.00;100927.13;4844951;29;20040;-76
2021/06/25 00:58:51;;;;;;;20.80;11.68;;;;;;;28.21;100.00;100929.00;4845352;29;20063;-77
2021/06/25 01:01:37;;;;;;;21.38;12.25;;;;;;;28.03;100.00;100934.13;4846337;29;20466;-76
2021/06/25 01:04:23;;;;;;;20.38;12.55;;;;;;;27.84;100.00;100934.00;4845834;29;20165;-75
2021/06/25 01:07:10;;;;;;;21.55;12.85;;;;;;;27.96;100.00;100924.88;4833264;29;20315;-75
2021/06/25 01:09:57;;;;;;;22.05;13.05;;;;;;;28.13;100.00;100920.72;4845291;29;20073;-76
2021/06/25 01:12:44;;;;;;;20.55;13.18;;;;;;;28.07;100.00;100922.13;4844383;29;20041;-76
2021/06/25 01:15:30;;;;;;;21.85;13.48;;;;;;;27.82;100.00;100922.53;4844938;29;20118;-76
2021/06/25 01:18:16;;;;;;;22.33;12.95;;;;;;;27.88;100.00;100921.97;4845383;29;20113;-75
2021/06/25 01:21:03;;;;;;;18.13;13.20;;;;;;;28.02;100.00;100918.97;4845383;29;20030;-75
2021/06/25 01:23:49;;;;;;;21.05;14.07;;;;;;;27.96;100.00;100924.88;4845296;29;20050;-75
2021/06/25 01:26:35;;;;;;;19.77;13.98;;;;;;;27.87;100.00;100932.88;4845295;29;20141;-76
2021/06/25 01:29:21;;;;;;;18.38;13.55;;;;;;;27.96;100.00;100935.66;4844735;29;20029;-76
2021/06/25 01:32:07;;;;;;;29.25;14.25;;;;;;;27.93;100.00;100940.44;4844032;29;20036;-76
2021/06/25 01:34:53;;;;;;;23.17;15.30;;;;;;;27.95;100.00;100943.84;4844792;29;20460;-75
2021/06/25 01:37:40;;;;;;;22.50;15.45;;;;;;;27.64;100.00;100950.13;4844239;29;20029;-76
2021/06/25 01:40:26;;;;;;;24.35;16.10;;;;;;;27.51;100.00;100953.00;4832335;29;20411;-76
2021/06/25 01:43:12;;;;;;;21.77;16.52;;;;;;;27.73;100.00;100957.41;4845005;29;20041;-75
2021/06/25 01:45:59;;;;;;;22.60;16.38;;;;;;;27.52;100.00;100952.88;4844728;29;20030;-75
2021/06/25 01:48:45;;;;;;;22.80;16.38;;;;;;;27.61;100.00;100951.25;4844312;29;20535;-75
2021/06/25 01:51:30;;;;;;;25.08;16.35;;;;;;;27.54;100.00;100963.50;4844565;29;20026;-75
2021/06/25 01:54:16;;;;;;;26.13;16.98;;;;;;;27.33;100.00;100962.63;4844436;29;20389;-75
2021/06/25 01:57:02;;;;;;;23.85;17.25;;;;;;;27.32;100.00;100966.25;4845070;29;20026;-75
2021/06/25 01:59:48;;;;;;;20.27;17.30;;;;;;;27.28;100.00;100964.81;4844251;29;20026;-75
2021/06/25 02:02:34;;;;;;;23.08;17.77;;;;;;;26.95;100.00;100956.78;4843946;29;20060;-75
2021/06/25 02:05:20;;;;;;;25.10;18.13;;;;;;;27.39;100.00;100956.69;4844369;29;20042;-75
2021/06/25 02:08:06;;;;;;;25.02;17.90;;;;;;;27.12;100.00;100951.72;4845043;29;20030;-75
2021/06/25 02:10:51;;;;;;;28.55;18.70;;;;;;;27.19;100.00;100950.25;4843460;29;20030;-75
2021/06/25 02:13:38;;;;;;;25.48;18.10;;;;;;;27.23;100.00;100946.38;4844662;29;20098;-75
2021/06/25 02:16:23;;;;;;;25.83;18.45;;;;;;;27.05;100.00;100944.31;4843911;29;20098;-75
2021/06/25 02:19:09;;;;;;;22.75;18.38;;;;;;;27.12;100.00;100943.66;4843809;29;20116;-75
2021/06/25 02:21:55;;;;;;;23.77;18.08;;;;;;;27.08;100.00;100938.66;4844882;29;20475;-75
2021/06/25 02:24:42;;;;;;;22.83;16.67;;;;;;;27.00;100.00;100931.22;4844245;29;20034;-75
2021/06/25 02:27:28;;;;;;;26.40;16.30;;;;;;;26.71;100.00;100924.69;4844827;29;20057;-75
2021/06/25 02:30:17;;;;;;;22.00;15.73;;;;;;;26.78;100.00;100917.84;4844185;29;20452;-75
2021/06/25 02:33:03;;;;;;;25.67;16.30;;;;;;;27.05;100.00;100917.41;4844708;29;20041;-76
2021/06/25 02:35:49;;;;;;;22.13;15.48;;;;;;;26.79;100.00;100915.97;4844194;29;20038;-76
2021/06/25 02:38:35;;;;;;;23.80;15.18;;;;;;;26.83;100.00;100901.31;4845496;29;20098;-75
2021/06/25 02:41:21;;;;;;;25.00;16.02;;;;;;;26.58;100.00;100910.53;4845768;29;20026;-75
2021/06/25 02:44:07;;;;;;;23.80;16.13;;;;;;;26.78;100.00;100906.22;4845591;29;20042;-75
2021/06/25 02:46:53;;;;;;;26.67;15.82;;;;;;;26.72;100.00;100896.81;4844818;29;20033;-75
2021/06/25 02:49:39;;;;;;;31.33;15.75;;;;;;;26.65;100.00;100906.34;4844174;29;20057;-76
2021/06/25 02:52:24;;;;;;;22.85;15.88;;;;;;;26.79;100.00;100899.84;4843738;29;20178;-76
2021/06/25 02:55:12;;;;;;;23.52;15.25;;;;;;;26.97;100.00;100892.97;4843967;29;20044;-75
2021/06/25 02:57:58;;;;;;;24.42;15.18;;;;;;;27.13;100.00;100902.31;4843860;29;20034;-75
2021/06/25 03:00:43;;;;;;;25.88;14.70;;;;;;;26.59;100.00;100901.47;4842764;29;20027;-75
2021/06/25 03:03:29;;;;;;;19.83;15.43;;;;;;;26.97;100.00;100891.13;4842804;29;20467;-75
2021/06/25 03:06:15;;;;;;;25.23;15.48;;;;;;;27.30;100.00;100890.19;4842691;29;20069;-76
2021/06/25 03:09:01;;;;;;;23.80;15.13;;;;;;;27.27;100.00;100895.81;4843078;29;20030;-75
2021/06/25 03:11:47;;;;;;;23.85;17.40;;;;;;;27.25;100.00;100892.44;4842833;29;20045;-75
2021/06/25 03:14:34;;;;;;;24.20;17.13;;;;;;;26.83;100.00;100901.31;4843186;29;20364;-75
2021/06/25 03:17:19;;;;;;;26.00;17.00;;;;;;;27.09;100.00;100913.47;4843292;29;20044;-75
2021/06/25 03:20:06;;;;;;;21.13;16.92;;;;;;;27.06;100.00;100916.41;4831305;29;20029;-75
2021/06/25 03:22:52;;;;;;;25.85;17.13;;;;;;;27.32;100.00;100918.69;4843256;29;20076;-75
2021/06/25 03:25:38;;;;;;;27.13;16.10;;;;;;;27.19;100.00;100917.09;4843909;29;20034;-75
2021/06/25 03:28:24;;;;;;;28.70;15.93;;;;;;;26.77;100.00;100910.72;4843107;29;20026;-75
2021/06/25 03:31:10;;;;;;;23.05;14.32;;;;;;;27.09;100.00;100908.94;4831073;29;20030;-75
2021/06/25 03:33:55;;;;;;;21.00;14.30;;;;;;;27.29;100.00;100904.66;4843274;29;20034;-75
2021/06/25 03:36:41;;;;;;;23.92;14.07;;;;;;;27.10;100.00;100902.59;4843580;29;20487;-76
2021/06/25 03:39:27;;;;;;;25.83;14.32;;;;;;;27.20;100.00;100900.00;4844037;29;20034;-76
2021/06/25 03:42:13;;;;;;;22.88;14.07;;;;;;;27.31;100.00;100887.38;4842732;29;20033;-76
2021/06/25 03:44:59;;;;;;;28.23;14.10;;;;;;;27.01;100.00;100891.75;4843774;29;20464;-76
2021/06/25 03:47:44;;;;;;;22.48;14.82;;;;;;;27.29;100.00;100892.03;4831050;29;20033;-75
2021/06/25 03:50:30;;;;;;;26.08;14.27;;;;;;;27.52;100.00;100900.00;4843325;29;20033;-75
2021/06/25 03:53:16;;;;;;;21.40;13.77;;;;;;;27.25;100.00;100906.72;4843121;29;20153;-76
2021/06/25 03:56:11;;;;;;;22.20;13.77;;;;;;;27.49;100.00;100903.81;4843153;29;20047;-76
2021/06/25 03:58:57;;;;;;;23.10;13.88;;;;;;;27.41;100.00;100904.44;4842884;29;20026;-75
2021/06/25 04:01:43;;;;;;;24.65;13.73;;;;;;;27.70;100.00;100910.06;4830747;29;20080;-76
2021/06/25 04:04:29;;;;;;;20.73;13.68;;;;;;;27.66;100.00;100905.94;4843472;29;20069;-76
2021/06/25 04:07:15;;;;;;;25.83;14.50;;;;;;;27.12;100.00;100905.13;4842785;29;20351;-76
2021/06/25 04:10:02;;;;;;;22.30;13.85;;;;;;;27.46;100.00;100901.38;4842016;29;20034;-76
2021/06/25 04:12:47;;;;;;;19.33;13.18;;;;;;;27.75;100.00;100909.66;4843162;29;20022;-76
2021/06/25 04:15:33;;;;;;;27.27;14.07;;;;;;;27.87;100.00;100906.81;4843088;29;20026;-76
2021/06/25 04:18:19;;;;;;;22.27;14.10;;;;;;;27.53;100.00;100898.03;4842584;29;20026;-76
2021/06/25 04:21:05;;;;;;;18.70;13.38;;;;;;;27.70;100.00;100906.50;4846107;29;20110;-76
2021/06/25 04:23:51;;;;;;;24.52;14.45;;;;;;;27.61;100.00;100905.47;4846333;29;20053;-76
2021/06/25 04:26:38;;;;;;;19.20;14.35;;;;;;;27.03;100.00;100898.69;4846452;29;20029;-76
2021/06/25 04:29:24;;;;;;;29.17;14.70;;;;;;;26.89;100.00;100898.97;4846153;29;20057;-75
2021/06/25 04:32:12;;;;;;;23.80;14.27;;;;;;;27.18;100.00;100899.25;4846014;29;20110;-75
2021/06/25 04:34:57;;;;;;;27.45;15.82;;;;;;;27.13;100.00;100901.50;4846309;29;20372;-75
2021/06/25 04:37:43;;;;;;;22.85;14.65;;;;;;;26.63;100.00;100894.88;4845282;29;20468;-75
2021/06/25 04:40:31;;;;;;;23.08;15.05;;;;;;;26.38;100.00;100895.09;4846028;29;20037;-76
2021/06/25 04:43:17;;;;;;;27.48;14.63;;;;;;;26.90;100.00;100897.13;4833778;29;20041;-76
2021/06/25 04:46:03;;;;;;;24.65;14.95;;;;;;;27.16;100.00;100906.59;4845773;29;20481;-76
2021/06/25 04:48:49;;;;;;;27.60;16.25;;;;;;;27.28;100.00;100900.22;4845531;29;20116;-77
2021/06/25 04:51:35;;;;;;;21.17;15.13;;;;;;;27.65;100.00;100906.06;4846239;29;20467;-76
2021/06/25 04:54:21;;;;;;;25.50;15.57;;;;;;;27.63;100.00;100902.63;4833396;29;20145;-76
2021/06/25 04:57:07;;;;;;;28.70;16.10;;;;;;;27.66;100.00;100903.25;4846048;29;20034;-76
2021/06/25 04:59:53;;;;;;;25.02;15.68;;;;;;;27.55;100.00;100899.75;4845718;29;20428;-74
2021/06/25 05:02:38;;;;;;;22.92;15.35;;;;;;;27.99;100.00;100903.06;4845646;29;20412;-76
2021/06/25 05:05:24;;;;;;;24.45;16.30;;;;;;;27.78;100.00;100901.31;4845748;29;20037;-76
2021/06/25 05:08:11;;;;;;;25.95;15.32;;;;;;;27.86;100.00;100899.72;4845606;29;20554;-76
2021/06/25 05:10:57;;;;;;;31.70;16.10;;;;;;;28.05;100.00;100896.28;4845483;29;20537;-76
2021/06/25 05:13:42;;;;;;;28.30;16.70;;;;;;;28.04;100.00;100894.59;4844985;29;20045;-76
2021/06/25 05:16:28;;;;;;;29.00;16.38;;;;;;;28.38;100.00;100896.88;4844506;29;20034;-76
2021/06/25 05:19:14;;;;;;;23.15;16.27;;;;;;;28.27;100.00;100894.28;4844848;29;20102;-75
2021/06/25 05:22:00;;;;;;;28.08;15.80;;;;;;;28.80;100.00;100884.16;4845117;29;20034;-76
2021/06/25 05:24:46;;;;;;;28.65;15.70;;;;;;;28.59;100.00;100892.31;4844675;29;20109;-76
2021/06/25 05:27:32;;;;;;;29.77;15.05;;;;;;;28.27;100.00;100885.31;4844883;29;20030;-75
2021/06/25 05:30:18;;;;;;;22.98;14.13;;;;;;;28.04;100.00;100895.44;4844124;29;20040;-76
2021/06/25 05:33:05;;;;;;;26.88;13.85;;;;;;;28.50;100.00;100889.56;4845663;29;20042;-76
2021/06/25 05:35:51;;;;;;;23.88;13.90;;;;;;;28.14;100.00;100895.47;4844909;29;20041;-76
2021/06/25 05:38:37;;;;;;;26.60;14.52;;;;;;;27.83;100.00;100905.38;4832823;29;20053;-76
2021/06/25 05:41:23;;;;;;;22.63;14.25;;;;;;;28.21;100.00;100900.19;4844745;29;20033;-75
2021/06/25 05:44:09;;;;;;;26.55;14.40;;;;;;;28.29;100.00;100904.94;4844540;29;20464;-75
2021/06/25 05:46:55;;;;;;;23.50;13.82;;;;;;;28.59;100.00;100892.31;4844625;29;20037;-75
2021/06/25 05:49:41;;;;;;;20.95;14.13;;;;;;;28.80;100.00;100890.38;4844742;29;20038;-76
2021/06/25 05:52:26;;;;;;;26.77;14.02;;;;;;;29.33;100.00;100902.56;4843629;29;20099;-76
2021/06/25 05:55:13;;;;;;;31.98;14.13;;;;;;;29.25;100.00;100902.41;4832149;29;20197;-76
2021/06/25 05:57:59;;;;;;;26.20;13.82;;;;;;;29.34;100.00;100915.09;4845547;29;20079;-76
2021/06/25 06:00:45;;;;;;;27.33;13.40;;;;;;;29.45;100.00;100917.63;4844023;29;20061;-75
2021/06/25 06:03:30;;;;;;;25.10;14.23;;;;;;;29.82;100.00;100915.91;4844456;29;20037;-75
2021/06/25 06:06:16;;;;;;;18.67;12.77;;;;;;;29.92;100.00;100919.47;4844086;29;20030;-76
2021/06/25 06:09:03;;;;;;;25.00;13.35;;;;;;;29.47;100.00;100922.88;4844029;29;20037;-76
2021/06/25 06:11:49;;;;;;;17.25;12.15;;;;;;;30.18;100.00;100928.66;4844484;29;20041;-75
2021/06/25 06:14:35;;;;;;;21.63;12.35;;;;;;;30.08;100.00;100927.81;4844068;29;20041;-76
2021/06/25 06:17:24;;;;;;;26.73;12.73;;;;;;;29.40;100.00;100925.28;4843749;29;20451;-76
2021/06/25 06:20:15;;;;;;;22.90;11.90;;;;;;;29.52;100.00;100915.19;4844361;29;20049;-76
2021/06/25 06:35:03;;;;;;;20.10;11.25;;;;;;;30.17;100.00;100907.19;4843218;29;20026;-76
2021/06/25 06:37:50;;;;;;;20.50;10.70;;;;;;;30.77;100.00;100912.94;4844140;29;20441;-76
2021/06/25 06:40:36;;;;;;;22.42;11.35;;;;;;;30.95;100.00;100918.41;4844074;29;20030;-76
2021/06/25 06:43:22;;;;;;;25.88;12.43;;;;;;;30.98;100.00;100927.06;4843872;29;20025;-75
2021/06/25 06:46:10;;;;;;;25.38;13.13;;;;;;;30.89;100.00;100922.56;4844269;29;20098;-76
2021/06/25 06:48:56;;;;;;;26.85;13.80;;;;;;;30.91;100.00;100925.13;4845729;29;20033;-75
2021/06/25 06:51:41;;;;;;;27.05;14.35;;;;;;;31.60;100.00;100922.63;4843349;29;20030;-75
2021/06/25 06:54:27;;;;;;;26.98;13.65;;;;;;;31.35;100.00;100918.88;4842995;29;20396;-75
2021/06/25 06:57:13;;;;;;;26.15;12.98;;;;;;;31.86;100.00;100923.56;4844479;29;20132;-76
2021/06/25 06:59:59;;;;;;;25.05;12.88;;;;;;;32.30;100.00;100919.84;4843747;29;20040;-76
2021/06/25 07:02:45;;;;;;;26.65;12.82;;;;;;;32.37;100.00;100910.91;4843814;29;20064;-75
2021/06/25 07:05:30;;;;;;;21.73;10.43;;;;;;;32.01;100.00;100917.41;4843875;29;20068;-76
2021/06/25 07:08:16;;;;;;;25.02;11.50;;;;;;;31.75;100.00;100916.53;4843187;29;20188;-76
2021/06/25 07:11:03;;;;;;;23.52;11.00;;;;;;;31.33;100.00;100920.88;4843962;29;20041;-77
2021/06/25 07:13:49;;;;;;;18.90;10.77;;;;;;;31.48;100.00;100913.03;4842324;29;20088;-77
2021/06/25 07:16:35;;;;;;;22.95;10.80;;;;;;;31.94;100.00;100918.22;4843899;29;20122;-76
2021/06/25 07:19:21;;;;;;;23.30;11.50;;;;;;;31.83;100.00;100919.34;4843617;29;20057;-76
2021/06/25 07:22:06;;;;;;;25.00;11.73;;;;;;;32.59;100.00;100912.19;4843371;29;20409;-76
2021/06/25 07:24:52;;;;;;;17.95;10.93;;;;;;;33.21;100.00;100915.31;4842921;29;20033;-76
2021/06/25 07:27:40;;;;;;;28.67;12.32;;;;;;;32.60;100.00;100914.75;4843237;29;20053;-75
2021/06/25 07:30:27;;;;;;;27.88;12.25;;;;;;;32.39;100.00;100921.59;4843282;29;20090;-75
2021/06/25 07:40:58;;;;;;;28.63;14.25;;;;;;;32.61;100.00;100938.16;5075815;23;20460;-75
2021/06/25 07:43:44;;;;;;;19.92;12.32;;;;;;;32.60;100.00;100932.88;4849776;29;20033;-75
2021/06/25 07:46:30;;;;;;;20.48;12.30;;;;;;;32.77;100.00;100931.94;4848927;29;20429;-75
2021/06/25 07:49:16;;;;;;;24.85;11.95;;;;;;;32.37;100.00;100932.59;4849420;29;20033;-77
2021/06/25 07:52:02;;;;;;;24.42;12.07;;;;;;;33.27;100.00;100932.81;4861533;29;20469;-75
2021/06/25 07:54:48;;;;;;;27.58;12.32;;;;;;;33.24;100.00;100938.56;4852698;29;20120;-77
2021/06/25 07:57:34;;;;;;;20.65;11.98;;;;;;;33.52;100.00;100946.31;4864924;29;20029;-77
2021/06/25 08:00:20;;;;;;;19.17;12.82;;;;;;;33.46;100.00;100948.81;4864680;29;20029;-76
2021/06/25 08:03:06;;;;;;;25.73;12.38;;;;;;;33.09;100.00;100942.94;4851867;29;20029;-76
2021/06/25 08:05:54;;;;;;;22.33;12.60;;;;;;;33.74;100.00;100942.91;4864730;29;20040;-76
2021/06/25 08:08:40;;;;;;;21.02;11.85;;;;;;;34.19;100.00;100945.97;4864577;29;20483;-76
2021/06/25 08:11:26;;;;;;;24.17;11.13;;;;;;;34.01;100.00;100939.03;4864188;29;20373;-76
2021/06/25 08:14:11;;;;;;;21.08;12.13;;;;;;;34.22;100.00;100937.47;4864379;29;20039;-76
2021/06/25 08:16:57;;;;;;;20.80;10.90;;;;;;;34.64;100.00;100950.81;4864481;29;20034;-76
2021/06/25 08:19:43;;;;;;;23.38;11.60;;;;;;;34.38;100.00;100953.78;4864455;29;20025;-76
2021/06/25 08:22:29;;;;;;;24.75;10.30;;;;;;;34.70;100.00;100955.56;4864571;29;20423;-76
2021/06/25 08:25:14;;;;;;;17.92;10.98;;;;;;;35.13;100.00;100939.56;4864831;29;20033;-76
2021/06/25 08:28:00;;;;;;;23.40;10.98;;;;;;;34.71;100.00;100941.75;4865042;29;20057;-76
2021/06/25 08:30:46;;;;;;;24.38;11.18;;;;;;;34.69;100.00;100946.56;4864097;29;20341;-76
2021/06/25 08:33:35;;;;;;;21.70;10.85;;;;;;;35.50;100.00;100951.59;4851840;29;20033;-75
2021/06/25 08:36:24;;;;;;;30.38;10.57;;;;;;;34.99;100.00;100962.09;4863845;29;20178;-75
2021/06/25 08:39:09;;;;;;;20.58;10.90;;;;;;;35.22;100.00;100948.53;4863939;29;20048;-76
2021/06/25 08:44:38;;;;;;;18.65;10.38;;;;;;;35.24;100.00;100949.22;4878766;23;20061;-75
2021/06/25 08:47:26;;;;;;;25.38;10.30;;;;;;;34.99;100.00;100947.63;4846820;29;20025;-75
2021/06/25 08:50:14;;;;;;;22.60;10.27;;;;;;;35.56;100.00;100948.16;4846108;29;20038;-75
2021/06/25 08:53:00;;;;;;;24.92;10.82;;;;;;;35.74;100.00;100952.28;4845936;29;20400;-75
2021/06/25 08:55:46;;;;;;;29.92;10.68;;;;;;;35.74;100.00;100954.13;4846578;29;20113;-75
2021/06/25 08:58:36;;;;;;;21.02;10.05;;;;;;;35.07;100.00;100944.84;4834103;29;20038;-75
2021/06/25 09:01:22;;;;;;;24.88;10.05;;;;;;;35.14;100.00;100941.25;4845946;29;20045;-75
2021/06/25 09:04:08;;;;;;;17.42;9.77;;;;;;;35.31;100.00;100936.56;4845638;29;20034;-75
2021/06/25 09:06:54;;;;;;;17.50;10.00;;;;;;;36.20;100.00;100951.19;4833765;29;20026;-75
2021/06/25 09:09:48;;;;;;;23.25;10.95;;;;;;;36.08;100.00;100949.94;4845917;29;20433;-75
2021/06/25 09:12:33;;;;;;;20.63;10.77;;;;;;;35.79;100.00;100940.88;4846042;29;20384;-75
2021/06/25 09:15:20;;;;;;;21.20;10.77;;;;;;;35.63;100.00;100930.88;4833263;29;20034;-75
2021/06/25 09:18:09;;;;;;;21.98;11.35;;;;;;;36.01;100.00;100939.97;4832599;29;20036;-75
2021/06/25 09:20:55;;;;;;;19.58;11.48;;;;;;;35.94;100.00;100941.72;4845465;29;20056;-75
2021/06/25 09:23:41;;;;;;;23.02;11.07;;;;;;;36.01;100.00;100935.38;4845559;29;20108;-75
2021/06/25 09:26:32;;;;;;;27.08;10.55;;;;;;;36.03;100.00;100930.56;4845201;29;20105;-75
2021/06/25 09:29:23;;;;;;;20.35;11.05;;;;;;;36.29;100.00;100933.75;4845744;29;20129;-75
2021/06/25 09:32:11;;;;;;;21.73;11.07;;;;;;;36.72;100.00;100930.19;4846014;29;20029;-75
2021/06/25 09:34:57;;;;;;;19.55;11.27;;;;;;;36.53;100.00;100921.69;4845983;29;20030;-75
2021/06/25 09:37:48;;;;;;;24.13;11.38;;;;;;;36.29;100.00;100917.38;4845938;29;20038;-75
2021/06/25 09:40:36;;;;;;;26.02;10.77;;;;;;;36.57;100.00;100918.41;4845402;29;20053;-75
2021/06/25 09:43:31;;;;;;;23.45;10.95;;;;;;;36.79;100.00;100922.06;4844839;29;20117;-75
2021/06/25 09:46:24;;;;;;;22.42;9.50;;;;;;;36.92;100.00;100916.78;4845705;29;20444;-75
2021/06/25 09:49:15;;;;;;;19.90;10.70;;;;;;;36.30;100.00;100921.78;4845406;29;20460;-76
2021/06/25 09:52:03;;;;;;;22.83;11.00;;;;;;;36.02;100.00;100917.09;4832750;29;20026;-75
2021/06/25 09:55:06;;;;;;;26.05;10.93;;;;;;;35.70;100.00;100918.22;4845482;29;20532;-76
2021/06/25 10:04:12;;;;;;;19.40;10.68;;;;;;;36.31;100.00;100888.00;4845508;29;20044;-75
2021/06/25 10:07:13;;;;;;;19.25;9.40;;;;;;;35.98;100.00;100886.63;4844764;29;20034;-76
2021/06/25 10:10:09;;;;;;;26.20;10.57;;;;;;;35.91;100.00;100888.38;4845688;29;20041;-76
2021/06/25 10:12:56;;;;;;;23.00;9.90;;;;;;;36.19;100.00;100891.34;4831622;29;20528;-76
2021/06/25 10:15:42;;;;;;;26.67;9.38;;;;;;;36.13;100.00;100882.03;4845167;29;20383;-76
2021/06/25 10:18:30;;;;;;;22.50;9.57;;;;;;;36.40;100.00;100875.09;4844675;29;20057;-76
2021/06/25 10:21:18;;;;;;;20.73;9.50;;;;;;;36.11;100.00;100873.19;4845260;29;20120;-76
2021/06/25 11:04:48;;;;;;;19.90;9.30;;;;;;;36.87;93.73;100848.19;5012254;23;20045;-75
2021/06/25 11:07:42;;;;;;;19.92;9.13;;;;;;;36.23;94.92;100838.13;4863660;29;20198;-75
2021/06/25 11:10:34;;;;;;;17.92;9.70;;;;;;;36.49;98.62;100833.88;4863179;29;20060;-75
2021/06/25 11:13:22;;;;;;;16.25;9.65;;;;;;;36.68;98.33;100833.28;4862612;29;20116;-75
2021/06/25 11:16:20;;;;;;;22.50;9.40;;;;;;;36.59;97.59;100834.41;4863095;29;20025;-76
2021/06/25 11:19:36;;;;;;;18.67;10.48;;;;;;;36.69;96.63;100839.59;4862471;29;20071;-76
2021/06/25 11:22:40;;;;;;;17.50;9.27;;;;;;;37.43;93.68;100837.25;4862405;29;20040;-76
2021/06/25 11:57:37;;;;;;;18.25;8.98;;;;;;;36.94;92.77;100822.66;4901435;23;20440;-75
2021/06/25 12:00:24;;;;;;;20.13;9.05;;;;;;;37.36;97.78;100830.06;4851796;29;20095;-76
2021/06/25 12:03:10;;;;;;;22.30;9.88;;;;;;;37.12;99.92;100828.50;4865813;29;20044;-76
2021/06/25 12:06:04;;;;;;;18.13;8.65;;;;;;;37.75;91.77;100820.31;4865749;29;20080;-75
2021/06/25 12:09:01;;;;;;;22.67;8.85;;;;;;;36.59;95.98;100818.00;4866220;29;20108;-76
2021/06/25 12:11:47;;;;;;;19.17;8.77;;;;;;;37.38;93.63;100815.13;4865817;29;20408;-76
2021/06/25 12:14:50;;;;;;;16.33;8.57;;;;;;;37.55;91.65;100818.41;4865405;29;20033;-76
2021/06/25 12:37:03;;;;;;;18.70;8.40;;;;;;;37.82;89.98;100828.56;5538527;23;20141;-74
2021/06/25 12:39:48;;;;;;;27.60;8.85;;;;;;;37.26;90.78;100821.31;4864240;29;20120;-76
2021/06/25 12:42:34;;;;;;;28.25;9.65;;;;;;;37.29;96.56;100823.66;4865149;29;20033;-77
2021/06/25 12:45:20;;;;;;;21.25;9.38;;;;;;;37.09;96.56;100818.00;4865092;29;20037;-77
2021/06/25 12:48:11;;;;;;;25.10;8.68;;;;;;;37.38;94.89;100826.06;4851124;29;20038;-77
2021/06/25 12:51:04;;;;;;;22.98;8.88;;;;;;;37.71;89.93;100827.22;4863921;29;20036;-77
2021/06/25 12:53:57;;;;;;;21.00;8.30;;;;;;;37.18;92.91;100827.78;4849534;29;20029;-77
2021/06/25 12:56:44;;;;;;;21.02;8.80;;;;;;;37.15;90.99;100827.31;4863207;29;20033;-77
2021/06/25 12:59:30;;;;;;;15.63;8.18;;;;;;;37.21;93.20;100823.81;4863463;29;20409;-76
2021/06/25 13:02:15;;;;;;;15.95;8.30;;;;;;;37.17;94.09;100828.78;4862862;29;20037;-77
2021/06/25 13:05:01;;;;;;;19.65;8.48;;;;;;;37.38;92.86;100826.06;4864128;29;20101;-77
2021/06/25 13:07:47;;;;;;;20.38;8.48;;;;;;;38.09;90.70;100816.78;4864698;29;20036;-76
2021/06/25 13:10:33;;;;;;;15.07;8.73;;;;;;;37.75;90.09;100822.19;4864099;29;20065;-75
2021/06/25 13:13:25;;;;;;;13.73;8.65;;;;;;;37.79;91.62;100823.47;4850689;29;20025;-75
2021/06/25 13:16:14;;;;;;;17.08;8.23;;;;;;;38.35;87.33;100815.03;4862584;29;20025;-75
2021/06/25 13:19:00;;;;;;;18.92;9.00;;;;;;;38.01;92.29;100817.72;4862328;29;20057;-76
2021/06/25 13:22:20;;;;;;;23.90;8.60;;;;;;;37.68;93.66;100824.06;4849829;29;20111;-77
2021/06/25 13:25:10;;;;;;;17.98;8.20;;;;;;;37.72;92.04;100820.69;4834259;29;20463;-77
2021/06/25 13:27:56;;;;;;;21.00;8.05;;;;;;;37.75;93.43;100822.19;4863648;29;20087;-77
2021/06/25 13:30:43;;;;;;;21.30;8.13;;;;;;;37.12;93.66;100828.50;4862214;29;20044;-77
2021/06/25 13:33:38;;;;;;;20.35;7.90;;;;;;;37.34;93.73;100821.19;4863960;29;20033;-76
2021/06/25 13:36:24;;;;;;;20.75;9.07;;;;;;;37.44;92.93;100832.66;4862544;29;20049;-76
2021/06/25 13:39:10;;;;;;;18.55;8.82;;;;;;;37.44;92.69;100817.06;4863283;29;20036;-76
2021/06/25 13:41:57;;;;;;;26.63;11.32;;;;;;;37.66;94.02;100820.66;4861476;29;20088;-75
2021/06/25 13:44:43;;;;;;;19.48;9.10;;;;;;;37.27;96.87;100818.41;4862740;29;20101;-76
2021/06/25 13:47:33;;;;;;;19.85;9.30;;;;;;;37.16;96.82;100809.88;4861933;29;20025;-76
2021/06/25 13:50:20;;;;;;;18.17;8.50;;;;;;;37.31;97.58;100807.91;4861312;29;20034;-76
2021/06/25 13:53:06;;;;;;;22.90;8.80;;;;;;;37.52;91.67;100808.72;4861309;29;20036;-75
2021/06/25 13:56:00;;;;;;;18.55;8.35;;;;;;;36.83;91.76;100808.66;4862540;29;20482;-76
2021/06/25 13:59:06;;;;;;;20.42;8.70;;;;;;;36.77;93.45;100802.09;4860896;29;20030;-76
2021/06/25 14:01:52;;;;;;;17.42;8.60;;;;;;;36.55;95.39;100802.19;4863794;29;20021;-76
2021/06/25 14:04:41;;;;;;;18.92;9.05;;;;;;;36.14;94.55;100799.13;4850196;29;20033;-76
2021/06/25 14:07:27;;;;;;;19.50;12.02;;;;;;;36.87;95.02;100801.75;4861954;29;20447;-76
2021/06/25 14:10:13;;;;;;;17.17;8.00;;;;;;;36.80;92.17;100796.22;4862154;29;20455;-76
2021/06/25 14:13:00;;;;;;;21.65;9.57;;;;;;;36.71;95.42;100796.53;4849575;29;20049;-77
2021/06/25 14:15:48;;;;;;;24.48;8.93;;;;;;;37.35;91.25;100799.13;4847880;29;20086;-77
2021/06/25 14:18:33;;;;;;;23.30;8.80;;;;;;;36.57;93.54;100789.22;4863666;29;20115;-76
2021/06/25 14:21:27;;;;;;;19.45;8.23;;;;;;;36.65;93.35;100784.50;4862895;29;20045;-76
2021/06/25 14:24:18;;;;;;;22.85;8.95;;;;;;;36.27;92.78;100782.97;4861337;29;20360;-76
2021/06/25 14:27:04;;;;;;;19.52;8.85;;;;;;;36.72;90.68;100779.13;4863185;29;20029;-75
2021/06/25 14:29:50;;;;;;;15.65;8.80;;;;;;;37.07;89.68;100780.94;4863231;29;20033;-75
2021/06/25 14:32:36;;;;;;;21.48;8.20;;;;;;;36.85;92.34;100773.81;4849903;29;20033;-76
2021/06/25 14:35:23;;;;;;;27.98;9.57;;;;;;;37.00;92.11;100769.94;4848917;29;20037;-75